createdAt,value
2023-03-14T00:02:11.048Z,-0.08
2023-03-14T00:04:40.449Z,-0.10
2023-03-14T00:07:08.799Z,-0.12
2023-03-14T00:09:37.099Z,-0.14
2023-03-14T00:12:08.134Z,-0.16
2023-03-14T00:14:36.355Z,-0.18
2023-03-14T00:17:04.641Z,-0.22
2023-03-14T00:19:32.773Z,-0.24
2023-03-14T00:22:01.424Z,-0.26
2023-03-14T00:24:29.805Z,-0.28
2023-03-14T00:26:58.321Z,-0.30
2023-03-14T00:29:30.066Z,-0.32
2023-03-14T00:31:58.569Z,-0.34
2023-03-14T00:34:29.701Z,-0.35
2023-03-14T00:36:58.227Z,-0.35
2023-03-14T00:39:26.469Z,-0.37
2023-03-14T00:41:55.103Z,-0.40
2023-03-14T00:44:24.044Z,-0.42
2023-03-14T00:46:53.176Z,-0.44
2023-03-14T00:49:21.561Z,-0.49
2023-03-14T00:51:49.871Z,-0.53
2023-03-14T00:54:18.463Z,-0.55
2023-03-14T00:56:46.814Z,-0.57
2023-03-14T00:59:18.762Z,-0.57
2023-03-14T01:01:47.150Z,-0.60
2023-03-14T01:04:15.351Z,-0.60
2023-03-14T01:06:44.147Z,-0.62
2023-03-14T01:09:13.019Z,-0.64
2023-03-14T01:11:45.199Z,-0.65
2023-03-14T01:14:13.796Z,-0.66
2023-03-14T01:16:42.384Z,-0.67
2023-03-14T01:19:10.653Z,-0.67
2023-03-14T01:21:39.855Z,-0.67
2023-03-14T01:24:08.611Z,-0.68
2023-03-14T01:26:44.834Z,-0.70
2023-03-14T01:29:13.895Z,-0.72
2023-03-14T01:31:42.175Z,-0.75
2023-03-14T01:34:12.249Z,-0.77
2023-03-14T01:36:40.656Z,-0.79
2023-03-14T01:39:10.057Z,-0.81
2023-03-14T01:41:38.600Z,-0.83
2023-03-14T01:44:13.085Z,-0.84
2023-03-14T01:46:42.787Z,-0.84
2023-03-14T01:49:11.410Z,-0.83
2023-03-14T01:51:40.505Z,-0.81
2023-03-14T01:54:14.909Z,-0.81
2023-03-14T01:56:44.681Z,-0.81
2023-03-14T01:59:13.183Z,-0.78
2023-03-14T02:01:42.453Z,-0.77
2023-03-14T02:04:11.930Z,-0.74
2023-03-14T02:07:00.830Z,-0.75
2023-03-14T02:09:33.312Z,-0.75
2023-03-14T02:12:02.555Z,-0.76
2023-03-14T02:14:51.269Z,-0.81
2023-03-14T02:17:52.018Z,-0.84
2023-03-14T02:20:34.721Z,-0.85
2023-03-14T02:23:03.073Z,-0.88
2023-03-14T02:25:41.531Z,-0.88
2023-03-14T02:28:29.662Z,-0.89
2023-03-14T02:31:01.004Z,-0.90
2023-03-14T02:33:29.467Z,-0.92
2023-03-14T02:36:01.247Z,-0.95
2023-03-14T02:38:37.453Z,-0.97
2023-03-14T02:41:07.465Z,-0.99
2023-03-14T02:43:38.966Z,-1.01
2023-03-14T02:46:14.803Z,-1.03
2023-03-14T02:48:46.225Z,-1.06
2023-03-14T02:51:15.191Z,-1.06
2023-03-14T02:53:43.959Z,-1.04
2023-03-14T02:56:13.508Z,-1.02
2023-03-14T02:58:41.965Z,-0.98
2023-03-14T03:01:20.407Z,-0.94
2023-03-14T03:03:49.734Z,-0.92
2023-03-14T03:06:18.071Z,-0.93
2023-03-14T03:08:46.247Z,-0.95
2023-03-14T03:11:14.471Z,-0.98
2023-03-14T03:13:43.645Z,-1.00
2023-03-14T03:16:14.869Z,-1.03
2023-03-14T03:18:45.020Z,-1.07
2023-03-14T03:21:13.431Z,-1.11
2023-03-14T03:23:47.612Z,-1.13
2023-03-14T03:26:15.986Z,-1.16
2023-03-14T03:28:44.165Z,-1.19
2023-03-14T03:31:13.057Z,-1.22
2023-03-14T03:33:41.436Z,-1.24
2023-03-14T03:36:09.980Z,-1.25
2023-03-14T03:38:39.728Z,-1.23
2023-03-14T03:41:08.348Z,-1.24
2023-03-14T03:43:38.457Z,-1.24
2023-03-14T03:46:07.939Z,-1.25
2023-03-14T03:48:37.132Z,-1.27
2023-03-14T03:51:06.936Z,-1.27
2023-03-14T03:53:37.777Z,-1.28
2023-03-14T03:56:10.279Z,-1.29
2023-03-14T03:58:40.133Z,-1.32
2023-03-14T04:01:08.957Z,-1.33
2023-03-14T04:03:40.171Z,-1.34
2023-03-14T04:06:12.689Z,-1.33
2023-03-14T04:08:42.653Z,-1.31
2023-03-14T04:11:16.574Z,-1.30
2023-03-14T04:14:06.732Z,-1.28
2023-03-14T04:16:36.290Z,-1.26
2023-03-14T04:19:13.651Z,-1.23
2023-03-14T04:21:46.061Z,-1.20
2023-03-14T04:24:15.080Z,-1.18
2023-03-14T04:26:47.094Z,-1.16
2023-03-14T04:29:15.318Z,-1.14
2023-03-14T04:31:47.290Z,-1.12
2023-03-14T04:34:15.851Z,-1.10
2023-03-14T04:36:52.454Z,-1.04
2023-03-14T04:39:25.895Z,-0.81
2023-03-14T04:42:18.255Z,-0.08
2023-03-14T04:44:47.997Z,0.73
2023-03-14T04:47:17.168Z,1.52
2023-03-14T04:49:51.677Z,2.15
2023-03-14T04:52:20.092Z,2.64
2023-03-14T04:54:48.614Z,3.20
2023-03-14T04:57:16.979Z,3.96
2023-03-14T04:59:45.242Z,4.66
2023-03-14T05:02:39.357Z,5.50
2023-03-14T05:05:28.148Z,6.42
2023-03-14T05:08:32.371Z,7.37
2023-03-14T05:11:24.114Z,8.17
2023-03-14T05:14:04.873Z,8.87
2023-03-14T05:16:36.378Z,9.54
2023-03-14T05:19:30.071Z,10.30
2023-03-14T05:22:04.118Z,11.06
2023-03-14T05:24:45.266Z,11.87
2023-03-14T05:27:34.111Z,12.30
2023-03-14T05:30:20.880Z,12.43
2023-03-14T05:33:04.087Z,12.94
2023-03-14T05:35:41.713Z,13.41
2023-03-14T05:38:38.589Z,14.04
2023-03-14T05:41:21.084Z,14.76
2023-03-14T05:44:16.283Z,15.12
2023-03-14T05:47:04.437Z,15.26
2023-03-14T05:49:58.554Z,15.08
2023-03-14T05:52:38.808Z,15.07
2023-03-14T05:55:17.313Z,15.04
2023-03-14T05:58:06.943Z,14.85
2023-03-14T06:00:55.682Z,14.93
2023-03-14T06:03:37.608Z,15.27
2023-03-14T06:06:07.414Z,15.59
2023-03-14T06:08:35.944Z,15.55
2023-03-14T06:11:11.721Z,15.82
2023-03-14T06:13:43.024Z,16.16
2023-03-14T06:16:11.392Z,16.59
2023-03-14T06:18:42.814Z,16.70
2023-03-14T06:21:11.556Z,16.60
2023-03-14T06:23:40.041Z,16.71
2023-03-14T06:26:08.416Z,16.94
2023-03-14T06:28:39.919Z,17.25
2023-03-14T06:31:09.117Z,17.38
2023-03-14T06:33:43.078Z,17.52
2023-03-14T06:36:12.216Z,17.74
2023-03-14T06:38:42.877Z,18.05
2023-03-14T06:41:11.412Z,18.26
2023-03-14T06:43:43.953Z,18.23
2023-03-14T06:46:12.872Z,17.87
2023-03-14T06:48:42.216Z,17.84
2023-03-14T06:51:12.617Z,17.93
2023-03-14T06:53:42.132Z,18.20
2023-03-14T06:56:10.597Z,18.44
2023-03-14T06:58:39.070Z,18.20
2023-03-14T07:01:13.483Z,17.66
2023-03-14T07:03:42.030Z,17.32
2023-03-14T07:06:10.747Z,16.86
2023-03-14T07:08:40.554Z,16.79
2023-03-14T07:11:09.130Z,17.13
2023-03-14T07:13:38.253Z,17.51
2023-03-14T07:16:08.198Z,17.63
2023-03-14T07:18:38.681Z,17.42
2023-03-14T07:21:10.250Z,17.37
2023-03-14T07:23:39.418Z,17.42
2023-03-14T07:26:08.217Z,17.34
2023-03-14T07:28:38.529Z,17.13
2023-03-14T07:31:10.395Z,17.08
2023-03-14T07:33:39.754Z,17.16
2023-03-14T07:36:08.764Z,17.10
2023-03-14T07:38:37.555Z,17.13
2023-03-14T07:41:24.496Z,17.17
2023-03-14T07:44:11.319Z,17.34
2023-03-14T07:46:40.902Z,17.69
2023-03-14T07:49:09.350Z,17.81
2023-03-14T07:51:39.780Z,17.49
2023-03-14T07:54:08.155Z,17.35
2023-03-14T07:56:36.751Z,17.41
2023-03-14T07:59:06.054Z,17.61
2023-03-14T08:01:34.714Z,17.92
2023-03-14T08:04:03.794Z,18.32
2023-03-14T08:06:32.300Z,18.40
2023-03-14T08:09:00.506Z,18.40
2023-03-14T08:11:30.121Z,18.46
2023-03-14T08:13:58.606Z,18.33
2023-03-14T08:16:26.896Z,17.76
2023-03-14T08:18:57.379Z,17.24
2023-03-14T08:21:25.961Z,16.93
2023-03-14T08:23:59.690Z,16.84
2023-03-14T08:26:28.039Z,16.78
2023-03-14T08:28:56.544Z,16.70
2023-03-14T08:31:25.262Z,16.52
2023-03-14T08:33:54.369Z,16.30
2023-03-14T08:36:24.988Z,16.28
2023-03-14T08:38:53.663Z,16.35
2023-03-14T08:41:21.879Z,16.30
2023-03-14T08:43:50.175Z,16.30
2023-03-14T08:46:18.502Z,16.35
2023-03-14T08:48:49.923Z,16.35
2023-03-14T08:51:18.973Z,16.42
2023-03-14T08:53:47.219Z,16.62
2023-03-14T08:56:15.441Z,16.79
2023-03-14T08:58:44.088Z,16.77
2023-03-14T09:01:12.486Z,16.63
2023-03-14T09:03:45.010Z,16.57
2023-03-14T09:06:13.320Z,16.42
2023-03-14T09:08:43.403Z,16.21
2023-03-14T09:11:11.704Z,16.06
2023-03-14T09:13:45.654Z,16.20
2023-03-14T09:16:14.595Z,16.45
2023-03-14T09:18:42.966Z,16.66
2023-03-14T09:21:18.410Z,16.90
2023-03-14T09:23:47.089Z,17.07
2023-03-14T09:26:15.525Z,17.20
2023-03-14T09:28:44.140Z,17.15
2023-03-14T09:31:13.140Z,16.83
2023-03-14T09:33:41.612Z,16.63
2023-03-14T09:36:10.330Z,16.71
2023-03-14T09:38:38.546Z,16.86
2023-03-14T09:41:15.907Z,16.98
2023-03-14T09:43:44.287Z,17.05
2023-03-14T09:46:12.780Z,16.90
2023-03-14T09:48:42.052Z,16.38
2023-03-14T09:51:14.512Z,15.94
2023-03-14T09:53:44.632Z,15.92
2023-03-14T09:56:22.201Z,15.94
2023-03-14T09:58:54.233Z,16.00
2023-03-14T10:01:24.341Z,15.89
2023-03-14T10:03:52.996Z,15.81
2023-03-14T10:06:21.236Z,15.67
2023-03-14T10:08:49.632Z,15.53
2023-03-14T10:11:18.191Z,15.69
2023-03-14T10:13:50.764Z,15.72
2023-03-14T10:16:19.021Z,15.45
2023-03-14T10:18:51.443Z,15.19
2023-03-14T10:21:39.951Z,15.20
2023-03-14T10:24:28.543Z,15.24
2023-03-14T10:27:03.445Z,15.08
2023-03-14T10:29:32.396Z,14.96
2023-03-14T10:32:09.009Z,14.92
2023-03-14T10:34:38.015Z,14.86
2023-03-14T10:37:19.374Z,14.82
2023-03-14T10:39:48.766Z,14.71
2023-03-14T10:42:20.511Z,14.70
2023-03-14T10:44:50.455Z,14.73
2023-03-14T10:47:21.010Z,14.64
2023-03-14T10:49:54.827Z,14.60
2023-03-14T10:52:31.239Z,14.64
2023-03-14T10:55:11.658Z,14.50
2023-03-14T10:57:40.907Z,14.20
2023-03-14T11:00:19.714Z,13.86
2023-03-14T11:03:08.690Z,13.89
2023-03-14T11:05:39.991Z,14.17
2023-03-14T11:08:12.865Z,14.40
2023-03-14T11:10:44.068Z,14.40
2023-03-14T11:13:18.607Z,14.30
2023-03-14T11:15:47.490Z,14.09
2023-03-14T11:18:34.536Z,14.02
2023-03-14T11:21:10.590Z,13.85
2023-03-14T11:23:42.155Z,13.35
2023-03-14T11:26:14.519Z,13.08
2023-03-14T11:28:48.281Z,13.08
2023-03-14T11:31:22.377Z,13.00
2023-03-14T11:33:57.404Z,12.91
2023-03-14T11:36:29.089Z,12.98
2023-03-14T11:38:58.168Z,13.10
2023-03-14T11:41:35.221Z,12.85
2023-03-14T11:44:11.259Z,12.51
2023-03-14T11:46:44.248Z,12.53
2023-03-14T11:49:18.877Z,12.68
2023-03-14T11:51:51.909Z,12.79
2023-03-14T11:54:48.207Z,12.70
2023-03-14T11:57:17.339Z,12.25
2023-03-14T11:59:45.488Z,11.94
2023-03-14T12:02:17.442Z,11.91
2023-03-14T12:04:51.750Z,12.00
2023-03-14T12:07:43.371Z,11.99
2023-03-14T12:10:12.345Z,11.82
2023-03-14T12:12:41.205Z,11.64
2023-03-14T12:15:22.128Z,11.43
2023-03-14T12:17:57.807Z,11.23
2023-03-14T12:20:26.268Z,11.08
2023-03-14T12:22:54.756Z,10.85
2023-03-14T12:25:23.963Z,10.76
2023-03-14T12:27:58.213Z,10.78
2023-03-14T12:30:30.902Z,10.82
2023-03-14T12:33:14.565Z,10.84
2023-03-14T12:35:43.395Z,10.85
2023-03-14T12:38:14.402Z,10.86
2023-03-14T12:40:51.865Z,10.86
2023-03-14T12:43:30.166Z,10.85
2023-03-14T12:46:18.282Z,10.84
2023-03-14T12:48:47.291Z,10.78
2023-03-14T12:51:15.675Z,10.74
2023-03-14T12:53:56.793Z,10.73
2023-03-14T12:56:34.238Z,10.74
2023-03-14T12:59:11.683Z,10.73
2023-03-14T13:01:46.347Z,10.72
2023-03-14T13:04:14.737Z,10.73
2023-03-14T13:06:58.287Z,10.73
2023-03-14T13:09:35.695Z,10.62
2023-03-14T13:12:12.450Z,10.50
2023-03-14T13:14:45.054Z,10.48
2023-03-14T13:17:33.364Z,10.45
2023-03-14T13:20:10.974Z,10.40
2023-03-14T13:22:40.101Z,10.36
2023-03-14T13:25:09.394Z,10.29
2023-03-14T13:27:38.346Z,10.25
2023-03-14T13:30:16.186Z,10.25
2023-03-14T13:32:46.936Z,10.28
2023-03-14T13:35:35.831Z,10.30
2023-03-14T13:38:12.521Z,10.26
2023-03-14T13:40:40.991Z,10.21
2023-03-14T13:43:18.797Z,10.24
2023-03-14T13:45:50.191Z,10.25
2023-03-14T13:48:18.857Z,10.24
2023-03-14T13:50:48.001Z,10.24
2023-03-14T13:53:23.670Z,10.20
2023-03-14T13:55:52.324Z,10.18
2023-03-14T13:58:22.850Z,10.14
2023-03-14T14:00:55.132Z,10.10
2023-03-14T14:03:23.669Z,10.08
2023-03-14T14:05:51.996Z,10.08
2023-03-14T14:08:20.399Z,10.07
2023-03-14T14:10:48.992Z,10.05
2023-03-14T14:13:20.242Z,10.04
2023-03-14T14:15:50.856Z,10.03
2023-03-14T14:18:19.710Z,10.02
2023-03-14T14:20:54.563Z,10.01
2023-03-14T14:23:26.814Z,9.99
2023-03-14T14:25:55.016Z,9.95
2023-03-14T14:28:28.422Z,9.90
2023-03-14T14:31:21.216Z,9.87
2023-03-14T14:34:01.221Z,9.85
2023-03-14T14:36:30.799Z,9.84
2023-03-14T14:39:00.179Z,9.82
2023-03-14T14:41:32.506Z,9.80
2023-03-14T14:44:00.854Z,9.78
2023-03-14T14:46:30.483Z,9.77
2023-03-14T14:48:59.437Z,9.76
2023-03-14T14:51:28.260Z,9.74
2023-03-14T14:54:10.937Z,9.73
2023-03-14T14:56:39.544Z,9.70
2023-03-14T14:59:08.377Z,9.68
2023-03-14T15:01:40.655Z,9.66
2023-03-14T15:04:12.307Z,9.66
2023-03-14T15:06:40.956Z,9.64
2023-03-14T15:09:10.149Z,9.60
2023-03-14T15:11:40.417Z,9.56
2023-03-14T15:14:08.852Z,9.53
2023-03-14T15:16:39.632Z,9.50
2023-03-14T15:19:24.920Z,9.47
2023-03-14T15:21:54.342Z,9.42
2023-03-14T15:24:22.765Z,9.38
2023-03-14T15:26:51.975Z,9.35
2023-03-14T15:29:20.228Z,9.30
2023-03-14T15:32:12.516Z,9.24
2023-03-14T15:34:44.244Z,9.18
2023-03-14T15:37:13.587Z,9.14
2023-03-14T15:39:42.732Z,9.08
2023-03-14T15:42:11.105Z,9.03
2023-03-14T15:44:43.280Z,8.99
2023-03-14T15:47:11.806Z,8.92
2023-03-14T15:49:40.190Z,8.86
2023-03-14T15:52:11.110Z,8.82
2023-03-14T15:54:39.321Z,8.76
2023-03-14T15:57:07.868Z,8.72
2023-03-14T15:59:37.351Z,8.68
2023-03-14T16:02:06.236Z,8.62
2023-03-14T16:04:34.834Z,8.57
2023-03-14T16:07:03.492Z,8.51
2023-03-14T16:09:32.442Z,8.46
2023-03-14T16:12:02.263Z,8.40
2023-03-14T16:14:31.068Z,8.36
2023-03-14T16:17:00.381Z,8.29
2023-03-14T16:19:32.111Z,8.23
2023-03-14T16:22:00.468Z,8.16
2023-03-14T16:24:29.094Z,8.10
2023-03-14T16:26:57.756Z,8.03
2023-03-14T16:29:25.886Z,7.98
2023-03-14T16:31:54.624Z,7.93
2023-03-14T16:34:22.972Z,7.86
2023-03-14T16:36:54.321Z,7.81
2023-03-14T16:39:22.958Z,7.77
2023-03-14T16:41:51.168Z,7.73
2023-03-14T16:44:19.431Z,7.69
2023-03-14T16:46:47.715Z,7.65
2023-03-14T16:49:19.728Z,7.62
2023-03-14T16:51:48.090Z,7.60
2023-03-14T16:54:16.442Z,7.54
2023-03-14T16:56:48.272Z,7.52
2023-03-14T16:59:16.668Z,7.51
2023-03-14T17:01:45.327Z,7.50
2023-03-14T17:04:13.736Z,7.49
2023-03-14T17:06:45.596Z,7.48
2023-03-14T17:09:14.140Z,7.45
2023-03-14T17:11:42.311Z,7.43
2023-03-14T17:14:13.839Z,7.42
2023-03-14T17:16:42.748Z,7.38
2023-03-14T17:19:11.489Z,7.36
2023-03-14T17:21:40.437Z,7.34
2023-03-14T17:24:08.732Z,7.32
2023-03-14T17:26:37.082Z,7.30
2023-03-14T17:29:05.478Z,7.27
2023-03-14T17:31:34.219Z,7.23
2023-03-14T17:34:08.511Z,7.22
2023-03-14T17:36:38.064Z,7.21
2023-03-14T17:39:06.525Z,7.19
2023-03-14T17:41:36.202Z,7.18
2023-03-14T17:44:06.610Z,7.16
2023-03-14T17:46:35.357Z,7.17
2023-03-14T17:49:03.968Z,7.17
2023-03-14T17:51:34.846Z,7.17
2023-03-14T17:54:03.034Z,7.20
2023-03-14T17:56:31.639Z,7.23
2023-03-14T17:59:00.824Z,7.26
2023-03-14T18:01:29.946Z,7.27
2023-03-14T18:03:59.059Z,7.27
2023-03-14T18:06:30.439Z,7.27
2023-03-14T18:08:59.214Z,7.27
2023-03-14T18:11:28.064Z,7.26
2023-03-14T18:13:56.341Z,7.24
2023-03-14T18:16:24.679Z,7.23
2023-03-14T18:18:57.746Z,7.21
2023-03-14T18:21:26.473Z,7.15
2023-03-14T18:23:55.193Z,7.10
2023-03-14T18:26:25.772Z,7.05
2023-03-14T18:28:54.474Z,6.99
2023-03-14T18:31:25.344Z,6.95
2023-03-14T18:33:55.676Z,6.92
2023-03-14T18:36:23.896Z,6.87
2023-03-14T18:38:56.588Z,6.84
2023-03-14T18:41:25.195Z,6.81
2023-03-14T18:43:53.887Z,6.81
2023-03-14T18:46:22.473Z,6.80
2023-03-14T18:48:57.818Z,6.79
2023-03-14T18:51:26.901Z,6.76
2023-03-14T18:54:02.839Z,6.72
2023-03-14T18:56:37.985Z,6.70
2023-03-14T18:59:06.524Z,6.67
2023-03-14T19:01:36.572Z,6.65
2023-03-14T19:04:05.239Z,6.63
2023-03-14T19:06:35.784Z,6.61
2023-03-14T19:09:06.372Z,6.59
2023-03-14T19:11:34.568Z,6.56
2023-03-14T19:14:04.426Z,6.56
2023-03-14T19:16:33.622Z,6.56
2023-03-14T19:19:01.928Z,6.55
2023-03-14T19:21:36.010Z,6.54
2023-03-14T19:24:05.640Z,6.54
2023-03-14T19:26:35.405Z,6.55
2023-03-14T19:29:05.293Z,6.55
2023-03-14T19:31:33.852Z,6.59
2023-03-14T19:34:03.427Z,6.65
2023-03-14T19:36:33.620Z,6.69
2023-03-14T19:39:04.975Z,6.73
2023-03-14T19:41:33.575Z,6.79
2023-03-14T19:44:01.950Z,6.83
2023-03-14T19:46:33.288Z,6.87
2023-03-14T19:49:02.176Z,6.90
2023-03-14T19:51:33.052Z,6.94
2023-03-14T19:54:03.678Z,6.95
2023-03-14T19:56:32.393Z,6.97
2023-03-14T19:59:03.520Z,6.96
2023-03-14T20:01:31.917Z,6.96
2023-03-14T20:04:06.735Z,6.96
2023-03-14T20:06:35.480Z,6.96
2023-03-14T20:09:06.006Z,6.95
2023-03-14T20:11:44.180Z,6.94
2023-03-14T20:14:16.574Z,6.93
2023-03-14T20:16:44.843Z,6.93
2023-03-14T20:19:15.514Z,6.91
2023-03-14T20:21:43.691Z,6.93
2023-03-14T20:24:13.466Z,6.93
2023-03-14T20:26:41.758Z,6.93
2023-03-14T20:29:10.246Z,6.93
2023-03-14T20:31:40.333Z,6.92
2023-03-14T20:34:09.020Z,6.93
2023-03-14T20:36:38.520Z,6.91
2023-03-14T20:39:07.046Z,6.88
2023-03-14T20:41:42.065Z,6.86
2023-03-14T20:44:12.369Z,6.85
2023-03-14T20:46:40.953Z,6.84
2023-03-14T20:49:10.212Z,6.83
2023-03-14T20:51:39.089Z,6.82
2023-03-14T20:54:09.190Z,6.80
2023-03-14T20:56:38.555Z,6.79
2023-03-14T20:59:06.833Z,6.78
2023-03-14T21:04:22.451Z,6.75
2023-03-14T21:06:55.676Z,6.74
2023-03-14T21:09:26.732Z,6.73
2023-03-14T21:11:55.246Z,6.73
2023-03-14T21:14:27.900Z,6.73
2023-03-14T21:16:57.438Z,6.72
2023-03-14T21:19:30.688Z,6.71
2023-03-14T21:21:59.379Z,6.70
2023-03-14T21:24:29.052Z,6.69
2023-03-14T21:26:58.513Z,6.66
2023-03-14T21:29:27.326Z,6.63
2023-03-14T21:31:55.654Z,6.59
2023-03-14T21:34:27.128Z,6.56
2023-03-14T21:36:55.699Z,6.52
2023-03-14T21:39:23.878Z,6.48
2023-03-14T21:41:52.279Z,6.44
2023-03-14T21:44:21.886Z,6.42
2023-03-14T21:46:52.030Z,6.41
2023-03-14T21:49:20.354Z,6.40
2023-03-14T21:51:48.583Z,6.39
2023-03-14T21:54:16.993Z,6.37
2023-03-14T21:56:45.228Z,6.34
2023-03-14T21:59:14.894Z,6.29
2023-03-14T22:01:44.061Z,6.27
2023-03-14T22:04:12.269Z,6.25
2023-03-14T22:06:41.459Z,6.22
2023-03-14T22:09:09.976Z,6.19
2023-03-14T22:11:43.208Z,6.17
2023-03-14T22:14:12.272Z,6.15
2023-03-14T22:16:40.548Z,6.15
2023-03-14T22:19:12.912Z,6.13
2023-03-14T22:21:41.085Z,6.13
2023-03-14T22:24:10.165Z,6.12
2023-03-14T22:26:38.452Z,6.12
2023-03-14T22:29:06.973Z,6.12
2023-03-14T22:31:38.275Z,6.13
2023-03-14T22:34:06.428Z,6.14
2023-03-14T22:36:34.695Z,6.13
2023-03-14T22:39:02.991Z,6.10
2023-03-14T22:41:31.212Z,6.09
2023-03-14T22:44:02.600Z,6.08
2023-03-14T22:46:30.933Z,6.07
2023-03-14T22:48:59.880Z,6.07
2023-03-14T22:51:27.970Z,6.08
2023-03-14T22:53:56.272Z,6.06
2023-03-14T22:56:27.855Z,6.04
2023-03-14T22:58:59.212Z,6.01
2023-03-14T23:01:27.935Z,5.96
2023-03-14T23:03:56.525Z,5.94
2023-03-14T23:06:25.152Z,5.92
2023-03-14T23:08:53.517Z,5.89
2023-03-14T23:11:21.923Z,5.88
2023-03-14T23:13:51.093Z,5.86
2023-03-14T23:16:34.107Z,5.86
2023-03-14T23:19:10.034Z,5.86
2023-03-14T23:21:38.249Z,5.85
2023-03-14T23:24:08.081Z,5.84
2023-03-14T23:26:37.696Z,5.83
2023-03-14T23:29:07.364Z,5.81
2023-03-14T23:31:36.061Z,5.77
2023-03-14T23:34:04.502Z,5.74
2023-03-14T23:36:37.383Z,5.72
2023-03-14T23:39:05.977Z,5.69
2023-03-14T23:41:34.549Z,5.65
2023-03-14T23:44:03.120Z,5.63
2023-03-14T23:46:36.520Z,5.58
2023-03-14T23:49:05.068Z,5.54
2023-03-14T23:51:33.317Z,5.52
2023-03-14T23:54:01.532Z,5.48
2023-03-14T23:56:29.736Z,5.43
2023-03-14T23:58:57.947Z,5.38
